sensor_id;sensor_type;location;lat;lon;timestamp;P1;durP1;ratioP1;P2;durP2;ratioP2
52542;SDS011;38449;52.696;6.186;2023-04-24T00:00:17;1.83;;;1.40;;
52542;SDS011;38449;52.696;6.186;2023-04-24T00:03:11;1.95;;;1.50;;
52542;SDS011;38449;52.696;6.186;2023-04-24T00:06:06;1.85;;;1.45;;
52542;SDS011;38449;52.696;6.186;2023-04-24T00:08:39;1.98;;;1.77;;
52542;SDS011;38449;52.696;6.186;2023-04-24T00:11:33;1.95;;;1.70;;
52542;SDS011;38449;52.696;6.186;2023-04-24T00:14:05;1.95;;;1.75;;
52542;SDS011;38449;52.696;6.186;2023-04-24T00:16:59;2.03;;;1.83;;
52542;SDS011;38449;52.696;6.186;2023-04-24T00:19:31;2.20;;;1.92;;
52542;SDS011;38449;52.696;6.186;2023-04-24T00:22:25;2.72;;;1.88;;
52542;SDS011;38449;52.696;6.186;2023-04-24T00:25:18;2.90;;;2.08;;
52542;SDS011;38449;52.696;6.186;2023-04-24T00:27:50;2.40;;;1.98;;
52542;SDS011;38449;52.696;6.186;2023-04-24T00:30:44;2.47;;;2.08;;
52542;SDS011;38449;52.696;6.186;2023-04-24T00:33:17;2.55;;;2.33;;
52542;SDS011;38449;52.696;6.186;2023-04-24T00:36:11;2.50;;;2.30;;
52542;SDS011;38449;52.696;6.186;2023-04-24T00:38:43;3.47;;;2.50;;
52542;SDS011;38449;52.696;6.186;2023-04-24T00:41:37;3.83;;;2.40;;
52542;SDS011;38449;52.696;6.186;2023-04-24T00:44:10;3.10;;;2.80;;
52542;SDS011;38449;52.696;6.186;2023-04-24T00:47:03;3.00;;;2.67;;
52542;SDS011;38449;52.696;6.186;2023-04-24T00:49:35;3.00;;;2.67;;
52542;SDS011;38449;52.696;6.186;2023-04-24T00:52:29;3.20;;;2.90;;
52542;SDS011;38449;52.696;6.186;2023-04-24T00:55:04;3.42;;;3.13;;
52542;SDS011;38449;52.696;6.186;2023-04-24T00:57:57;3.40;;;3.10;;
52542;SDS011;38449;52.696;6.186;2023-04-24T01:00:31;4.13;;;3.72;;
52542;SDS011;38449;52.696;6.186;2023-04-24T01:03:24;3.53;;;3.22;;
52542;SDS011;38449;52.696;6.186;2023-04-24T01:06:00;4.22;;;3.67;;
52542;SDS011;38449;52.696;6.186;2023-04-24T01:08:54;4.47;;;3.63;;
52542;SDS011;38449;52.696;6.186;2023-04-24T01:11:27;4.03;;;3.45;;
52542;SDS011;38449;52.696;6.186;2023-04-24T01:14:22;3.75;;;3.35;;
52542;SDS011;38449;52.696;6.186;2023-04-24T01:16:55;3.38;;;3.08;;
52542;SDS011;38449;52.696;6.186;2023-04-24T01:19:48;3.50;;;3.20;;
52542;SDS011;38449;52.696;6.186;2023-04-24T01:22:20;3.63;;;3.33;;
52542;SDS011;38449;52.696;6.186;2023-04-24T01:25:14;4.13;;;3.72;;
52542;SDS011;38449;52.696;6.186;2023-04-24T01:27:47;4.82;;;4.43;;
52542;SDS011;38449;52.696;6.186;2023-04-24T01:30:40;4.35;;;3.55;;
52542;SDS011;38449;52.696;6.186;2023-04-24T01:33:13;3.75;;;3.45;;
52542;SDS011;38449;52.696;6.186;2023-04-24T01:36:06;4.68;;;4.13;;
52542;SDS011;38449;52.696;6.186;2023-04-24T01:38:40;4.57;;;4.18;;
52542;SDS011;38449;52.696;6.186;2023-04-24T01:41:33;3.42;;;3.13;;
52542;SDS011;38449;52.696;6.186;2023-04-24T01:44:07;3.78;;;3.47;;
52542;SDS011;38449;52.696;6.186;2023-04-24T01:47:00;3.70;;;3.40;;
52542;SDS011;38449;52.696;6.186;2023-04-24T01:49:33;4.82;;;3.22;;
52542;SDS011;38449;52.696;6.186;2023-04-24T01:52:26;3.40;;;3.10;;
52542;SDS011;38449;52.696;6.186;2023-04-24T01:55:01;3.28;;;2.97;;
52542;SDS011;38449;52.696;6.186;2023-04-24T01:57:57;3.67;;;3.00;;
52542;SDS011;38449;52.696;6.186;2023-04-24T02:00:32;3.28;;;2.97;;
52542;SDS011;38449;52.696;6.186;2023-04-24T02:03:25;2.60;;;2.40;;
52542;SDS011;38449;52.696;6.186;2023-04-24T02:05:59;3.28;;;2.97;;
52542;SDS011;38449;52.696;6.186;2023-04-24T02:08:52;2.67;;;2.42;;
52542;SDS011;38449;52.696;6.186;2023-04-24T02:11:25;2.85;;;2.50;;
52542;SDS011;38449;52.696;6.186;2023-04-24T02:14:18;2.42;;;2.22;;
52542;SDS011;38449;52.696;6.186;2023-04-24T02:16:51;2.58;;;2.38;;
52542;SDS011;38449;52.696;6.186;2023-04-24T02:19:44;2.42;;;2.08;;
52542;SDS011;38449;52.696;6.186;2023-04-24T02:22:18;2.60;;;2.30;;
52542;SDS011;38449;52.696;6.186;2023-04-24T02:25:11;3.25;;;2.60;;
52542;SDS011;38449;52.696;6.186;2023-04-24T02:27:44;2.70;;;2.13;;
52542;SDS011;38449;52.696;6.186;2023-04-24T02:30:37;2.55;;;1.92;;
52542;SDS011;38449;52.696;6.186;2023-04-24T02:33:10;3.50;;;2.30;;
52542;SDS011;38449;52.696;6.186;2023-04-24T02:36:04;2.90;;;1.90;;
52542;SDS011;38449;52.696;6.186;2023-04-24T02:38:37;2.45;;;1.75;;
52542;SDS011;38449;52.696;6.186;2023-04-24T02:41:30;3.28;;;2.03;;
52542;SDS011;38449;52.696;6.186;2023-04-24T02:44:05;1.88;;;1.63;;
52542;SDS011;38449;52.696;6.186;2023-04-24T02:46:58;2.90;;;1.80;;
52542;SDS011;38449;52.696;6.186;2023-04-24T02:49:31;1.90;;;1.67;;
52542;SDS011;38449;52.696;6.186;2023-04-24T02:52:24;3.22;;;2.08;;
52542;SDS011;38449;52.696;6.186;2023-04-24T02:54:57;2.00;;;1.80;;
52542;SDS011;38449;52.696;6.186;2023-04-24T02:57:50;2.20;;;2.00;;
52542;SDS011;38449;52.696;6.186;2023-04-24T03:00:23;2.80;;;2.00;;
52542;SDS011;38449;52.696;6.186;2023-04-24T03:03:18;2.83;;;1.70;;
52542;SDS011;38449;52.696;6.186;2023-04-24T03:05:53;2.20;;;1.77;;
52542;SDS011;38449;52.696;6.186;2023-04-24T03:08:46;2.20;;;1.70;;
52542;SDS011;38449;52.696;6.186;2023-04-24T03:11:19;2.30;;;1.85;;
52542;SDS011;38449;52.696;6.186;2023-04-24T03:14:12;2.60;;;1.55;;
52542;SDS011;38449;52.696;6.186;2023-04-24T03:16:45;1.80;;;1.52;;
52542;SDS011;38449;52.696;6.186;2023-04-24T03:19:38;3.47;;;2.00;;
52542;SDS011;38449;52.696;6.186;2023-04-24T03:22:11;2.20;;;1.95;;
52542;SDS011;38449;52.696;6.186;2023-04-24T03:25:04;2.25;;;1.90;;
52542;SDS011;38449;52.696;6.186;2023-04-24T03:27:38;1.80;;;1.33;;
52542;SDS011;38449;52.696;6.186;2023-04-24T03:30:31;2.50;;;1.75;;
52542;SDS011;38449;52.696;6.186;2023-04-24T03:33:04;2.20;;;1.30;;
52542;SDS011;38449;52.696;6.186;2023-04-24T03:35:57;1.45;;;1.10;;
52542;SDS011;38449;52.696;6.186;2023-04-24T03:38:30;2.00;;;0.95;;
52542;SDS011;38449;52.696;6.186;2023-04-24T03:41:23;1.13;;;0.90;;
52542;SDS011;38449;52.696;6.186;2023-04-24T03:43:56;1.20;;;1.00;;
52542;SDS011;38449;52.696;6.186;2023-04-24T03:46:49;1.83;;;0.90;;
52542;SDS011;38449;52.696;6.186;2023-04-24T03:49:22;0.70;;;0.70;;
52542;SDS011;38449;52.696;6.186;2023-04-24T03:52:15;0.73;;;0.73;;
52542;SDS011;38449;52.696;6.186;2023-04-24T03:54:48;0.98;;;0.88;;
52542;SDS011;38449;52.696;6.186;2023-04-24T03:57:41;1.30;;;1.15;;
52542;SDS011;38449;52.696;6.186;2023-04-24T04:00:14;2.13;;;0.85;;
52542;SDS011;38449;52.696;6.186;2023-04-24T04:03:07;2.38;;;1.20;;
52542;SDS011;38449;52.696;6.186;2023-04-24T04:05:40;1.45;;;1.00;;
52542;SDS011;38449;52.696;6.186;2023-04-24T04:08:33;1.63;;;1.42;;
52542;SDS011;38449;52.696;6.186;2023-04-24T04:11:06;1.67;;;1.23;;
52542;SDS011;38449;52.696;6.186;2023-04-24T04:13:59;3.42;;;1.40;;
52542;SDS011;38449;52.696;6.186;2023-04-24T04:16:32;1.83;;;1.48;;
52542;SDS011;38449;52.696;6.186;2023-04-24T04:19:25;2.72;;;1.55;;
52542;SDS011;38449;52.696;6.186;2023-04-24T04:21:58;1.80;;;1.33;;
52542;SDS011;38449;52.696;6.186;2023-04-24T04:24:51;1.50;;;1.40;;
52542;SDS011;38449;52.696;6.186;2023-04-24T04:27:44;2.20;;;1.60;;
52542;SDS011;38449;52.696;6.186;2023-04-24T04:30:20;5.68;;;2.42;;
52542;SDS011;38449;52.696;6.186;2023-04-24T04:33:14;4.53;;;3.17;;
52542;SDS011;38449;52.696;6.186;2023-04-24T04:35:47;3.70;;;3.28;;
52542;SDS011;38449;52.696;6.186;2023-04-24T04:38:42;5.63;;;3.60;;
52542;SDS011;38449;52.696;6.186;2023-04-24T04:41:17;4.85;;;4.32;;
52542;SDS011;38449;52.696;6.186;2023-04-24T04:44:10;5.30;;;4.10;;
52542;SDS011;38449;52.696;6.186;2023-04-24T04:46:43;5.45;;;4.22;;
52542;SDS011;38449;52.696;6.186;2023-04-24T04:49:38;5.47;;;3.97;;
52542;SDS011;38449;52.696;6.186;2023-04-24T04:52:11;4.93;;;3.50;;
52542;SDS011;38449;52.696;6.186;2023-04-24T04:55:04;4.57;;;3.83;;
52542;SDS011;38449;52.696;6.186;2023-04-24T04:57:38;5.03;;;3.55;;
52542;SDS011;38449;52.696;6.186;2023-04-24T05:00:31;6.05;;;3.38;;
52542;SDS011;38449;52.696;6.186;2023-04-24T05:03:08;5.47;;;3.97;;
52542;SDS011;38449;52.696;6.186;2023-04-24T05:06:01;5.85;;;3.70;;
52542;SDS011;38449;52.696;6.186;2023-04-24T05:08:34;7.20;;;5.65;;
52542;SDS011;38449;52.696;6.186;2023-04-24T05:11:27;7.03;;;5.32;;
52542;SDS011;38449;52.696;6.186;2023-04-24T05:14:00;6.85;;;5.90;;
52542;SDS011;38449;52.696;6.186;2023-04-24T05:16:53;6.93;;;5.30;;
52542;SDS011;38449;52.696;6.186;2023-04-24T05:19:26;8.73;;;6.22;;
52542;SDS011;38449;52.696;6.186;2023-04-24T05:22:21;9.43;;;5.85;;
52542;SDS011;38449;52.696;6.186;2023-04-24T05:25:14;8.38;;;5.70;;
52542;SDS011;38449;52.696;6.186;2023-04-24T05:27:47;7.32;;;5.63;;
52542;SDS011;38449;52.696;6.186;2023-04-24T05:30:40;6.97;;;4.95;;
52542;SDS011;38449;52.696;6.186;2023-04-24T05:33:13;8.07;;;5.50;;
52542;SDS011;38449;52.696;6.186;2023-04-24T05:36:06;7.07;;;6.28;;
52542;SDS011;38449;52.696;6.186;2023-04-24T05:38:39;6.55;;;5.40;;
52542;SDS011;38449;52.696;6.186;2023-04-24T05:41:32;8.82;;;6.00;;
52542;SDS011;38449;52.696;6.186;2023-04-24T05:44:05;6.60;;;5.20;;
52542;SDS011;38449;52.696;6.186;2023-04-24T05:46:58;7.10;;;5.38;;
52542;SDS011;38449;52.696;6.186;2023-04-24T05:49:31;6.72;;;4.57;;
52542;SDS011;38449;52.696;6.186;2023-04-24T05:52:24;8.57;;;4.80;;
52542;SDS011;38449;52.696;6.186;2023-04-24T05:54:57;7.05;;;4.80;;
52542;SDS011;38449;52.696;6.186;2023-04-24T05:57:50;6.88;;;3.72;;
52542;SDS011;38449;52.696;6.186;2023-04-24T06:00:23;6.93;;;4.38;;
52542;SDS011;38449;52.696;6.186;2023-04-24T06:03:17;5.30;;;4.15;;
52542;SDS011;38449;52.696;6.186;2023-04-24T06:05:50;6.45;;;4.38;;
52542;SDS011;38449;52.696;6.186;2023-04-24T06:08:43;6.45;;;4.20;;
52542;SDS011;38449;52.696;6.186;2023-04-24T06:11:17;5.90;;;4.13;;
52542;SDS011;38449;52.696;6.186;2023-04-24T06:14:10;5.55;;;4.30;;
52542;SDS011;38449;52.696;6.186;2023-04-24T06:16:43;6.90;;;4.03;;
52542;SDS011;38449;52.696;6.186;2023-04-24T06:19:36;5.38;;;3.70;;
52542;SDS011;38449;52.696;6.186;2023-04-24T06:22:09;6.97;;;4.72;;
52542;SDS011;38449;52.696;6.186;2023-04-24T06:25:02;6.78;;;4.55;;
52542;SDS011;38449;52.696;6.186;2023-04-24T06:27:55;5.80;;;4.35;;
52542;SDS011;38449;52.696;6.186;2023-04-24T06:30:29;4.97;;;4.15;;
52542;SDS011;38449;52.696;6.186;2023-04-24T06:33:22;6.45;;;4.13;;
52542;SDS011;38449;52.696;6.186;2023-04-24T06:35:55;6.50;;;4.45;;
52542;SDS011;38449;52.696;6.186;2023-04-24T06:38:49;6.57;;;4.50;;
52542;SDS011;38449;52.696;6.186;2023-04-24T06:41:22;8.13;;;5.15;;
52542;SDS011;38449;52.696;6.186;2023-04-24T06:44:15;10.88;;;5.38;;
52542;SDS011;38449;52.696;6.186;2023-04-24T06:46:48;9.60;;;5.95;;
52542;SDS011;38449;52.696;6.186;2023-04-24T06:49:41;9.45;;;5.30;;
52542;SDS011;38449;52.696;6.186;2023-04-24T06:52:14;8.32;;;5.93;;
52542;SDS011;38449;52.696;6.186;2023-04-24T06:55:07;8.20;;;5.55;;
52542;SDS011;38449;52.696;6.186;2023-04-24T06:57:40;7.78;;;5.70;;
52542;SDS011;38449;52.696;6.186;2023-04-24T07:00:33;8.80;;;5.18;;
52542;SDS011;38449;52.696;6.186;2023-04-24T07:03:06;7.22;;;4.85;;
52542;SDS011;38449;52.696;6.186;2023-04-24T07:05:59;8.82;;;5.65;;
52542;SDS011;38449;52.696;6.186;2023-04-24T07:08:32;7.00;;;4.88;;
52542;SDS011;38449;52.696;6.186;2023-04-24T07:11:27;7.03;;;5.22;;
52542;SDS011;38449;52.696;6.186;2023-04-24T07:14:01;7.90;;;4.47;;
52542;SDS011;38449;52.696;6.186;2023-04-24T07:16:54;7.13;;;4.32;;
52542;SDS011;38449;52.696;6.186;2023-04-24T07:19:29;6.40;;;4.30;;
52542;SDS011;38449;52.696;6.186;2023-04-24T07:22:22;5.65;;;4.10;;
52542;SDS011;38449;52.696;6.186;2023-04-24T07:24:55;7.28;;;4.03;;
52542;SDS011;38449;52.696;6.186;2023-04-24T07:27:48;5.53;;;4.13;;
52542;SDS011;38449;52.696;6.186;2023-04-24T07:30:21;7.30;;;4.50;;
52542;SDS011;38449;52.696;6.186;2023-04-24T07:33:14;7.70;;;3.88;;
52542;SDS011;38449;52.696;6.186;2023-04-24T07:35:47;6.32;;;4.57;;
52542;SDS011;38449;52.696;6.186;2023-04-24T07:38:41;6.38;;;4.00;;
52542;SDS011;38449;52.696;6.186;2023-04-24T07:41:14;8.10;;;5.38;;
52542;SDS011;38449;52.696;6.186;2023-04-24T07:44:07;9.05;;;5.82;;
52542;SDS011;38449;52.696;6.186;2023-04-24T07:46:40;11.30;;;6.03;;
52542;SDS011;38449;52.696;6.186;2023-04-24T07:49:33;12.07;;;7.55;;
52542;SDS011;38449;52.696;6.186;2023-04-24T07:52:07;18.77;;;11.52;;
52542;SDS011;38449;52.696;6.186;2023-04-24T07:55:00;17.95;;;11.18;;
52542;SDS011;38449;52.696;6.186;2023-04-24T07:57:34;21.52;;;11.88;;
52542;SDS011;38449;52.696;6.186;2023-04-24T08:00:27;23.50;;;15.18;;
52542;SDS011;38449;52.696;6.186;2023-04-24T08:03:00;23.58;;;14.18;;
52542;SDS011;38449;52.696;6.186;2023-04-24T08:05:53;18.83;;;11.30;;
52542;SDS011;38449;52.696;6.186;2023-04-24T08:08:27;20.23;;;13.07;;
52542;SDS011;38449;52.696;6.186;2023-04-24T08:11:20;24.73;;;12.02;;
52542;SDS011;38449;52.696;6.186;2023-04-24T08:13:53;21.80;;;13.82;;
52542;SDS011;38449;52.696;6.186;2023-04-24T08:16:46;23.95;;;14.70;;
52542;SDS011;38449;52.696;6.186;2023-04-24T08:19:19;23.33;;;12.88;;
52542;SDS011;38449;52.696;6.186;2023-04-24T08:22:12;20.27;;;13.90;;
52542;SDS011;38449;52.696;6.186;2023-04-24T08:24:46;19.83;;;11.40;;
52542;SDS011;38449;52.696;6.186;2023-04-24T08:27:39;20.55;;;13.88;;
52542;SDS011;38449;52.696;6.186;2023-04-24T08:30:12;21.00;;;13.75;;
52542;SDS011;38449;52.696;6.186;2023-04-24T08:33:05;21.33;;;12.45;;
52542;SDS011;38449;52.696;6.186;2023-04-24T08:35:39;17.08;;;11.82;;
52542;SDS011;38449;52.696;6.186;2023-04-24T08:38:33;22.02;;;12.38;;
52542;SDS011;38449;52.696;6.186;2023-04-24T08:41:06;17.60;;;11.15;;
52542;SDS011;38449;52.696;6.186;2023-04-24T08:44:02;21.23;;;12.57;;
52542;SDS011;38449;52.696;6.186;2023-04-24T08:46:34;17.38;;;11.02;;
52542;SDS011;38449;52.696;6.186;2023-04-24T08:49:29;15.57;;;10.50;;
52542;SDS011;38449;52.696;6.186;2023-04-24T08:52:02;17.05;;;11.75;;
52542;SDS011;38449;52.696;6.186;2023-04-24T08:54:59;14.00;;;10.63;;
52542;SDS011;38449;52.696;6.186;2023-04-24T08:57:33;13.43;;;9.30;;
52542;SDS011;38449;52.696;6.186;2023-04-24T09:00:26;17.17;;;10.60;;
52542;SDS011;38449;52.696;6.186;2023-04-24T09:03:00;16.15;;;9.82;;
52542;SDS011;38449;52.696;6.186;2023-04-24T09:05:52;17.45;;;9.73;;
52542;SDS011;38449;52.696;6.186;2023-04-24T09:08:27;13.95;;;9.73;;
52542;SDS011;38449;52.696;6.186;2023-04-24T09:11:22;16.10;;;9.30;;
52542;SDS011;38449;52.696;6.186;2023-04-24T09:13:56;14.82;;;8.30;;
52542;SDS011;38449;52.696;6.186;2023-04-24T09:16:50;13.85;;;8.52;;
52542;SDS011;38449;52.696;6.186;2023-04-24T09:19:23;14.80;;;7.85;;
52542;SDS011;38449;52.696;6.186;2023-04-24T09:22:16;12.15;;;6.22;;
52542;SDS011;38449;52.696;6.186;2023-04-24T09:25:02;9.20;;;6.82;;
52542;SDS011;38449;52.696;6.186;2023-04-24T09:28:00;12.07;;;7.50;;
52542;SDS011;38449;52.696;6.186;2023-04-24T09:30:34;9.45;;;6.03;;
52542;SDS011;38449;52.696;6.186;2023-04-24T09:33:27;10.82;;;6.30;;
52542;SDS011;38449;52.696;6.186;2023-04-24T09:36:00;12.05;;;6.93;;
52542;SDS011;38449;52.696;6.186;2023-04-24T09:38:55;9.93;;;5.18;;
52542;SDS011;38449;52.696;6.186;2023-04-24T09:41:31;11.20;;;5.68;;
52542;SDS011;38449;52.696;6.186;2023-04-24T09:44:25;7.25;;;5.28;;
52542;SDS011;38449;52.696;6.186;2023-04-24T09:46:59;7.97;;;5.45;;
52542;SDS011;38449;52.696;6.186;2023-04-24T09:49:57;12.35;;;5.35;;
52542;SDS011;38449;52.696;6.186;2023-04-24T09:52:30;9.27;;;5.60;;
52542;SDS011;38449;52.696;6.186;2023-04-24T09:55:23;9.80;;;4.22;;
52542;SDS011;38449;52.696;6.186;2023-04-24T09:57:58;10.32;;;4.30;;
52542;SDS011;38449;52.696;6.186;2023-04-24T10:00:31;8.13;;;3.65;;
52542;SDS011;38449;52.696;6.186;2023-04-24T10:02:59;9.02;;;4.18;;
52542;SDS011;38449;52.696;6.186;2023-04-24T10:05:31;7.68;;;3.60;;
52542;SDS011;38449;52.696;6.186;2023-04-24T10:08:02;8.68;;;3.95;;
52542;SDS011;38449;52.696;6.186;2023-04-24T10:10:32;7.20;;;3.88;;
52542;SDS011;38449;52.696;6.186;2023-04-24T10:12:59;9.63;;;4.13;;
52542;SDS011;38449;52.696;6.186;2023-04-24T10:15:26;10.43;;;4.30;;
52542;SDS011;38449;52.696;6.186;2023-04-24T10:17:53;8.98;;;3.72;;
52542;SDS011;38449;52.696;6.186;2023-04-24T10:20:21;10.27;;;4.82;;
52542;SDS011;38449;52.696;6.186;2023-04-24T10:22:49;11.65;;;3.72;;
52542;SDS011;38449;52.696;6.186;2023-04-24T10:25:18;10.23;;;4.53;;
52542;SDS011;38449;52.696;6.186;2023-04-24T10:27:46;7.57;;;3.88;;
52542;SDS011;38449;52.696;6.186;2023-04-24T10:30:13;9.65;;;3.97;;
52542;SDS011;38449;52.696;6.186;2023-04-24T10:32:40;12.38;;;5.03;;
52542;SDS011;38449;52.696;6.186;2023-04-24T10:35:06;10.55;;;4.07;;
52542;SDS011;38449;52.696;6.186;2023-04-24T10:37:37;8.88;;;3.90;;
52542;SDS011;38449;52.696;6.186;2023-04-24T10:40:25;8.23;;;3.88;;
52542;SDS011;38449;52.696;6.186;2023-04-24T10:42:53;11.25;;;4.55;;
52542;SDS011;38449;52.696;6.186;2023-04-24T10:45:21;8.90;;;3.10;;
52542;SDS011;38449;52.696;6.186;2023-04-24T10:47:59;10.80;;;3.30;;
52542;SDS011;38449;52.696;6.186;2023-04-24T10:50:44;7.57;;;2.88;;
52542;SDS011;38449;52.696;6.186;2023-04-24T10:53:12;5.38;;;2.50;;
52542;SDS011;38449;52.696;6.186;2023-04-24T10:58:23;7.68;;;2.92;;
52542;SDS011;38449;52.696;6.186;2023-04-24T11:00:57;6.82;;;2.83;;
52542;SDS011;38449;52.696;6.186;2023-04-24T11:03:29;7.78;;;2.88;;
52542;SDS011;38449;52.696;6.186;2023-04-24T11:05:59;8.45;;;2.67;;
52542;SDS011;38449;52.696;6.186;2023-04-24T11:08:26;9.27;;;2.83;;
52542;SDS011;38449;52.696;6.186;2023-04-24T11:10:57;6.82;;;2.45;;
52542;SDS011;38449;52.696;6.186;2023-04-24T11:22:02;9.50;;;2.58;;
52542;SDS011;38449;52.696;6.186;2023-04-24T11:24:38;6.72;;;2.80;;
52542;SDS011;38449;52.696;6.186;2023-04-24T11:27:06;7.72;;;2.33;;
52542;SDS011;38449;52.696;6.186;2023-04-24T11:29:40;7.03;;;2.95;;
52542;SDS011;38449;52.696;6.186;2023-04-24T11:34:55;7.50;;;2.30;;
52542;SDS011;38449;52.696;6.186;2023-04-24T11:37:24;8.32;;;2.72;;
52542;SDS011;38449;52.696;6.186;2023-04-24T11:39:53;7.47;;;2.40;;
52542;SDS011;38449;52.696;6.186;2023-04-24T11:42:21;6.97;;;2.22;;
52542;SDS011;38449;52.696;6.186;2023-04-24T11:44:52;3.40;;;1.83;;
52542;SDS011;38449;52.696;6.186;2023-04-24T11:47:30;5.65;;;2.10;;
52542;SDS011;38449;52.696;6.186;2023-04-24T11:49:59;5.05;;;2.13;;
52542;SDS011;38449;52.696;6.186;2023-04-24T11:52:27;5.03;;;1.63;;
52542;SDS011;38449;52.696;6.186;2023-04-24T11:54:53;5.65;;;1.98;;
52542;SDS011;38449;52.696;6.186;2023-04-24T11:57:20;5.47;;;2.08;;
52542;SDS011;38449;52.696;6.186;2023-04-24T11:59:47;6.57;;;2.03;;
52542;SDS011;38449;52.696;6.186;2023-04-24T12:02:20;6.80;;;2.20;;
52542;SDS011;38449;52.696;6.186;2023-04-24T12:04:50;4.35;;;1.98;;
52542;SDS011;38449;52.696;6.186;2023-04-24T12:07:18;5.25;;;1.73;;
52542;SDS011;38449;52.696;6.186;2023-04-24T12:09:46;6.43;;;2.05;;
52542;SDS011;38449;52.696;6.186;2023-04-24T12:12:18;4.85;;;2.10;;
52542;SDS011;38449;52.696;6.186;2023-04-24T12:17:15;4.10;;;1.77;;
52542;SDS011;38449;52.696;6.186;2023-04-24T12:19:46;4.78;;;1.55;;
52542;SDS011;38449;52.696;6.186;2023-04-24T12:22:13;6.65;;;2.28;;
52542;SDS011;38449;52.696;6.186;2023-04-24T12:24:55;4.43;;;2.03;;
52542;SDS011;38449;52.696;6.186;2023-04-24T12:27:23;3.38;;;1.55;;
52542;SDS011;38449;52.696;6.186;2023-04-24T12:29:55;6.25;;;1.60;;
52542;SDS011;38449;52.696;6.186;2023-04-24T12:32:24;5.38;;;1.90;;
52542;SDS011;38449;52.696;6.186;2023-04-24T12:34:51;4.85;;;1.83;;
52542;SDS011;38449;52.696;6.186;2023-04-24T12:37:18;9.00;;;2.00;;
52542;SDS011;38449;52.696;6.186;2023-04-24T12:40:04;6.85;;;2.00;;
52542;SDS011;38449;52.696;6.186;2023-04-24T12:42:35;4.57;;;2.42;;
52542;SDS011;38449;52.696;6.186;2023-04-24T12:45:07;6.47;;;2.08;;
52542;SDS011;38449;52.696;6.186;2023-04-24T12:47:34;7.53;;;2.00;;
52542;SDS011;38449;52.696;6.186;2023-04-24T12:50:01;4.20;;;1.55;;
52542;SDS011;38449;52.696;6.186;2023-04-24T12:52:28;5.43;;;2.40;;
52542;SDS011;38449;52.696;6.186;2023-04-24T12:54:56;6.03;;;1.55;;
52542;SDS011;38449;52.696;6.186;2023-04-24T12:57:24;5.93;;;2.10;;
52542;SDS011;38449;52.696;6.186;2023-04-24T12:59:53;5.63;;;1.90;;
52542;SDS011;38449;52.696;6.186;2023-04-24T13:02:20;5.55;;;2.20;;
52542;SDS011;38449;52.696;6.186;2023-04-24T13:04:48;4.68;;;1.40;;
52542;SDS011;38449;52.696;6.186;2023-04-24T13:07:15;4.40;;;1.70;;
52542;SDS011;38449;52.696;6.186;2023-04-24T13:09:42;1.85;;;1.30;;
52542;SDS011;38449;52.696;6.186;2023-04-24T13:12:10;2.65;;;1.20;;
52542;SDS011;38449;52.696;6.186;2023-04-24T13:14:37;2.75;;;1.48;;
52542;SDS011;38449;52.696;6.186;2023-04-24T13:17:04;5.18;;;1.60;;
52542;SDS011;38449;52.696;6.186;2023-04-24T13:19:35;4.40;;;1.92;;
52542;SDS011;38449;52.696;6.186;2023-04-24T13:22:03;3.65;;;1.48;;
52542;SDS011;38449;52.696;6.186;2023-04-24T13:24:29;4.45;;;1.38;;
52542;SDS011;38449;52.696;6.186;2023-04-24T13:26:57;5.10;;;1.38;;
52542;SDS011;38449;52.696;6.186;2023-04-24T13:29:23;4.13;;;1.58;;
52542;SDS011;38449;52.696;6.186;2023-04-24T13:31:50;4.80;;;1.63;;
52542;SDS011;38449;52.696;6.186;2023-04-24T13:34:17;5.65;;;1.60;;
52542;SDS011;38449;52.696;6.186;2023-04-24T13:36:44;3.90;;;1.85;;
52542;SDS011;38449;52.696;6.186;2023-04-24T13:39:10;6.00;;;2.40;;
52542;SDS011;38449;52.696;6.186;2023-04-24T13:41:36;5.65;;;1.90;;
52542;SDS011;38449;52.696;6.186;2023-04-24T13:44:03;7.07;;;2.50;;
52542;SDS011;38449;52.696;6.186;2023-04-24T13:46:30;6.70;;;2.65;;
52542;SDS011;38449;52.696;6.186;2023-04-24T13:48:57;6.47;;;3.60;;
52542;SDS011;38449;52.696;6.186;2023-04-24T13:51:25;8.95;;;2.45;;
52542;SDS011;38449;52.696;6.186;2023-04-24T13:53:53;9.32;;;2.42;;
52542;SDS011;38449;52.696;6.186;2023-04-24T13:56:19;6.47;;;2.20;;
52542;SDS011;38449;52.696;6.186;2023-04-24T13:58:46;5.57;;;2.05;;
52542;SDS011;38449;52.696;6.186;2023-04-24T14:01:13;4.90;;;2.05;;
52542;SDS011;38449;52.696;6.186;2023-04-24T14:03:44;8.13;;;2.45;;
52542;SDS011;38449;52.696;6.186;2023-04-24T14:06:10;5.82;;;2.20;;
52542;SDS011;38449;52.696;6.186;2023-04-24T14:08:36;9.52;;;2.42;;
52542;SDS011;38449;52.696;6.186;2023-04-24T14:11:04;9.68;;;2.95;;
52542;SDS011;38449;52.696;6.186;2023-04-24T14:13:53;9.75;;;3.38;;
52542;SDS011;38449;52.696;6.186;2023-04-24T14:16:22;11.68;;;3.20;;
52542;SDS011;38449;52.696;6.186;2023-04-24T14:18:48;10.55;;;3.42;;
52542;SDS011;38449;52.696;6.186;2023-04-24T14:21:14;6.50;;;3.10;;
52542;SDS011;38449;52.696;6.186;2023-04-24T14:23:41;11.40;;;3.38;;
52542;SDS011;38449;52.696;6.186;2023-04-24T14:26:07;9.77;;;3.17;;
52542;SDS011;38449;52.696;6.186;2023-04-24T14:28:33;8.60;;;2.45;;
52542;SDS011;38449;52.696;6.186;2023-04-24T14:31:00;9.82;;;2.40;;
52542;SDS011;38449;52.696;6.186;2023-04-24T14:33:26;7.35;;;2.30;;
52542;SDS011;38449;52.696;6.186;2023-04-24T14:35:52;8.63;;;2.63;;
52542;SDS011;38449;52.696;6.186;2023-04-24T14:38:19;7.93;;;2.67;;
52542;SDS011;38449;52.696;6.186;2023-04-24T14:40:45;9.32;;;2.72;;
52542;SDS011;38449;52.696;6.186;2023-04-24T14:43:11;10.57;;;2.38;;
52542;SDS011;38449;52.696;6.186;2023-04-24T14:45:37;7.68;;;2.50;;
52542;SDS011;38449;52.696;6.186;2023-04-24T14:48:05;7.32;;;2.65;;
52542;SDS011;38449;52.696;6.186;2023-04-24T14:50:32;8.40;;;2.58;;
52542;SDS011;38449;52.696;6.186;2023-04-24T14:52:58;5.57;;;2.47;;
52542;SDS011;38449;52.696;6.186;2023-04-24T14:55:25;8.95;;;2.40;;
52542;SDS011;38449;52.696;6.186;2023-04-24T14:57:52;7.50;;;2.92;;
52542;SDS011;38449;52.696;6.186;2023-04-24T15:00:19;7.07;;;2.30;;
52542;SDS011;38449;52.696;6.186;2023-04-24T15:02:45;13.88;;;3.92;;
52542;SDS011;38449;52.696;6.186;2023-04-24T15:05:12;9.38;;;3.75;;
52542;SDS011;38449;52.696;6.186;2023-04-24T15:07:38;9.43;;;2.47;;
52542;SDS011;38449;52.696;6.186;2023-04-24T15:10:07;10.65;;;3.28;;
52542;SDS011;38449;52.696;6.186;2023-04-24T15:12:34;5.43;;;2.30;;
52542;SDS011;38449;52.696;6.186;2023-04-24T15:15:00;11.05;;;3.22;;
52542;SDS011;38449;52.696;6.186;2023-04-24T15:17:26;7.78;;;3.40;;
52542;SDS011;38449;52.696;6.186;2023-04-24T15:19:53;8.98;;;2.97;;
52542;SDS011;38449;52.696;6.186;2023-04-24T15:22:19;9.57;;;3.58;;
52542;SDS011;38449;52.696;6.186;2023-04-24T15:24:46;7.93;;;2.92;;
52542;SDS011;38449;52.696;6.186;2023-04-24T15:27:12;11.82;;;2.90;;
52542;SDS011;38449;52.696;6.186;2023-04-24T15:29:38;10.82;;;3.58;;
52542;SDS011;38449;52.696;6.186;2023-04-24T15:32:04;8.38;;;3.45;;
52542;SDS011;38449;52.696;6.186;2023-04-24T15:34:31;11.82;;;3.42;;
52542;SDS011;38449;52.696;6.186;2023-04-24T15:36:58;11.02;;;4.07;;
52542;SDS011;38449;52.696;6.186;2023-04-24T15:39:25;11.10;;;3.13;;
52542;SDS011;38449;52.696;6.186;2023-04-24T15:41:51;7.93;;;3.33;;
52542;SDS011;38449;52.696;6.186;2023-04-24T15:44:19;10.85;;;3.40;;
52542;SDS011;38449;52.696;6.186;2023-04-24T15:46:46;11.90;;;3.65;;
52542;SDS011;38449;52.696;6.186;2023-04-24T15:49:13;11.10;;;3.65;;
52542;SDS011;38449;52.696;6.186;2023-04-24T15:51:39;8.25;;;2.30;;
52542;SDS011;38449;52.696;6.186;2023-04-24T15:54:06;11.68;;;3.38;;
52542;SDS011;38449;52.696;6.186;2023-04-24T15:56:32;7.57;;;2.92;;
52542;SDS011;38449;52.696;6.186;2023-04-24T15:58:58;6.53;;;3.42;;
52542;SDS011;38449;52.696;6.186;2023-04-24T16:01:25;11.05;;;3.72;;